EETU

Tartu

Airport
ICAO code
EETU
Summary
ICAO Region
EUR
ICAO Territory
Location

Reola, Ülenurme Parish,

Coordinates
58° 18' 25" N , 26° 41' 14" E
Metar
Observation
EETU 231650Z AUTO 22006KT 9999 -RA BKN010/// OVC013/// 08/07 Q0997
Station
Tartu/Ulenurme
Date/Time
2023-03-23 16:50:00
Wind direction
220°
Wind speed
06 kts
Lowest cloud amount
broken clouds
Temperature
8°C
Dew point
7°C
Humidity
93%
QNH
997 hPa
Weather condition
light rain

Tartu Airport (IATA: TAY, ICAO: EETU) is an airport in Reola, Ülenurme Parish, about 8 km south of Tartu, the second largest city in Estonia. It is also called Ülenurme Airport due to its proximity to the village of Ülenurme.

Runways

Designator Length Width Surface Rops
8/26 1379 35 ASP No/No

Airport map

Aerial View

SKYbrary Partners:

Safety knowledge contributed by: